sensor_id;sensor_type;location;lat;lon;timestamp;P1;durP1;ratioP1;P2;durP2;ratioP2
17449;SDS011;8842;51.244;7.102;2023-02-28T00:04:37;10.20;;;9.70;;
17449;SDS011;8842;51.244;7.102;2023-02-28T00:09:41;10.33;;;9.83;;
17449;SDS011;8842;51.244;7.102;2023-02-28T00:14:53;10.90;;;10.20;;
17449;SDS011;8842;51.244;7.102;2023-02-28T00:19:57;10.10;;;9.60;;
17449;SDS011;8842;51.244;7.102;2023-02-28T00:25:04;10.70;;;10.10;;
17449;SDS011;8842;51.244;7.102;2023-02-28T00:30:18;11.00;;;10.40;;
17449;SDS011;8842;51.244;7.102;2023-02-28T00:35:22;10.80;;;10.20;;
17449;SDS011;8842;51.244;7.102;2023-02-28T00:40:27;11.57;;;10.80;;
17449;SDS011;8842;51.244;7.102;2023-02-28T00:45:38;11.60;;;10.90;;
17449;SDS011;8842;51.244;7.102;2023-02-28T00:50:42;11.37;;;10.77;;
17449;SDS011;8842;51.244;7.102;2023-02-28T00:55:46;11.00;;;10.40;;
17449;SDS011;8842;51.244;7.102;2023-02-28T01:00:51;10.83;;;10.23;;
17449;SDS011;8842;51.244;7.102;2023-02-28T01:06:03;10.90;;;10.30;;
17449;SDS011;8842;51.244;7.102;2023-02-28T01:11:09;11.00;;;10.40;;
17449;SDS011;8842;51.244;7.102;2023-02-28T01:16:21;11.23;;;10.63;;
17449;SDS011;8842;51.244;7.102;2023-02-28T01:21:25;11.20;;;10.60;;
17449;SDS011;8842;51.244;7.102;2023-02-28T01:26:30;11.00;;;10.40;;
17449;SDS011;8842;51.244;7.102;2023-02-28T01:31:34;11.30;;;10.70;;
17449;SDS011;8842;51.244;7.102;2023-02-28T01:36:48;11.50;;;10.80;;
17449;SDS011;8842;51.244;7.102;2023-02-28T01:41:52;10.80;;;10.20;;
17449;SDS011;8842;51.244;7.102;2023-02-28T01:46:56;11.10;;;10.50;;
17449;SDS011;8842;51.244;7.102;2023-02-28T01:52:00;10.70;;;10.10;;
17449;SDS011;8842;51.244;7.102;2023-02-28T01:57:05;11.63;;;11.03;;
17449;SDS011;8842;51.244;7.102;2023-02-28T02:02:19;10.93;;;10.33;;
17449;SDS011;8842;51.244;7.102;2023-02-28T02:07:25;11.20;;;10.60;;
17449;SDS011;8842;51.244;7.102;2023-02-28T02:12:50;11.53;;;10.73;;
17449;SDS011;8842;51.244;7.102;2023-02-28T02:18:01;10.80;;;10.20;;
17449;SDS011;8842;51.244;7.102;2023-02-28T02:29:01;11.00;;;10.40;;
17449;SDS011;8842;51.244;7.102;2023-02-28T02:34:26;11.10;;;10.50;;
17449;SDS011;8842;51.244;7.102;2023-02-28T02:39:52;11.07;;;10.47;;
17449;SDS011;8842;51.244;7.102;2023-02-28T02:45:06;11.10;;;10.50;;
17449;SDS011;8842;51.244;7.102;2023-02-28T02:50:14;10.90;;;10.30;;
17449;SDS011;8842;51.244;7.102;2023-02-28T02:55:20;10.97;;;10.37;;
17449;SDS011;8842;51.244;7.102;2023-02-28T03:00:27;10.70;;;10.10;;
17449;SDS011;8842;51.244;7.102;2023-02-28T03:05:41;10.90;;;10.30;;
17449;SDS011;8842;51.244;7.102;2023-02-28T03:10:49;10.90;;;10.30;;
17449;SDS011;8842;51.244;7.102;2023-02-28T03:16:01;11.20;;;10.60;;
17449;SDS011;8842;51.244;7.102;2023-02-28T03:21:16;11.30;;;10.70;;
17449;SDS011;8842;51.244;7.102;2023-02-28T03:26:23;11.13;;;10.53;;
17449;SDS011;8842;51.244;7.102;2023-02-28T03:31:30;11.30;;;10.70;;
17449;SDS011;8842;51.244;7.102;2023-02-28T03:36:38;10.97;;;10.37;;
17449;SDS011;8842;51.244;7.102;2023-02-28T03:41:51;10.90;;;10.30;;
17449;SDS011;8842;51.244;7.102;2023-02-28T03:46:59;10.90;;;10.30;;
17449;SDS011;8842;51.244;7.102;2023-02-28T03:52:06;11.07;;;10.47;;
17449;SDS011;8842;51.244;7.102;2023-02-28T03:57:12;11.40;;;10.80;;
17449;SDS011;8842;51.244;7.102;2023-02-28T04:02:25;11.33;;;10.60;;
17449;SDS011;8842;51.244;7.102;2023-02-28T04:07:30;11.20;;;10.60;;
17449;SDS011;8842;51.244;7.102;2023-02-28T04:12:35;11.10;;;10.50;;
17449;SDS011;8842;51.244;7.102;2023-02-28T04:17:39;11.60;;;11.00;;
17449;SDS011;8842;51.244;7.102;2023-02-28T04:22:43;11.97;;;11.20;;
17449;SDS011;8842;51.244;7.102;2023-02-28T04:27:47;11.67;;;10.97;;
17449;SDS011;8842;51.244;7.102;2023-02-28T04:32:51;11.10;;;10.50;;
17449;SDS011;8842;51.244;7.102;2023-02-28T04:37:55;11.20;;;10.60;;
17449;SDS011;8842;51.244;7.102;2023-02-28T04:42:59;11.30;;;10.70;;
17449;SDS011;8842;51.244;7.102;2023-02-28T04:48:03;12.23;;;11.37;;
17449;SDS011;8842;51.244;7.102;2023-02-28T04:53:08;12.27;;;11.57;;
17449;SDS011;8842;51.244;7.102;2023-02-28T04:58:12;11.60;;;11.00;;
17449;SDS011;8842;51.244;7.102;2023-02-28T05:03:17;11.40;;;10.80;;
17449;SDS011;8842;51.244;7.102;2023-02-28T05:08:21;11.40;;;10.80;;
17449;SDS011;8842;51.244;7.102;2023-02-28T05:13:25;11.60;;;11.00;;
17449;SDS011;8842;51.244;7.102;2023-02-28T05:18:29;11.80;;;11.20;;
17449;SDS011;8842;51.244;7.102;2023-02-28T05:23:41;11.63;;;11.03;;
17449;SDS011;8842;51.244;7.102;2023-02-28T05:28:45;11.93;;;11.33;;
17449;SDS011;8842;51.244;7.102;2023-02-28T05:33:49;11.60;;;11.00;;
17449;SDS011;8842;51.244;7.102;2023-02-28T05:38:54;12.40;;;11.70;;
17449;SDS011;8842;51.244;7.102;2023-02-28T05:43:58;11.53;;;10.93;;
17449;SDS011;8842;51.244;7.102;2023-02-28T05:49:03;12.50;;;11.80;;
17449;SDS011;8842;51.244;7.102;2023-02-28T05:54:07;11.50;;;10.90;;
17449;SDS011;8842;51.244;7.102;2023-02-28T05:59:11;12.00;;;11.40;;
17449;SDS011;8842;51.244;7.102;2023-02-28T06:04:16;11.93;;;11.33;;
17449;SDS011;8842;51.244;7.102;2023-02-28T06:09:28;11.77;;;11.17;;
17449;SDS011;8842;51.244;7.102;2023-02-28T06:14:33;11.80;;;11.20;;
17449;SDS011;8842;51.244;7.102;2023-02-28T06:19:37;11.90;;;11.30;;
17449;SDS011;8842;51.244;7.102;2023-02-28T06:24:43;11.10;;;10.50;;
17449;SDS011;8842;51.244;7.102;2023-02-28T06:29:47;10.70;;;10.10;;
17449;SDS011;8842;51.244;7.102;2023-02-28T06:34:51;10.43;;;9.93;;
17449;SDS011;8842;51.244;7.102;2023-02-28T06:39:55;10.10;;;9.60;;
17449;SDS011;8842;51.244;7.102;2023-02-28T06:45:00;9.70;;;9.20;;
17449;SDS011;8842;51.244;7.102;2023-02-28T06:50:08;9.80;;;9.30;;
17449;SDS011;8842;51.244;7.102;2023-02-28T06:55:14;10.33;;;9.77;;
17449;SDS011;8842;51.244;7.102;2023-02-28T07:00:20;9.60;;;9.10;;
17449;SDS011;8842;51.244;7.102;2023-02-28T07:05:25;10.00;;;9.43;;
17449;SDS011;8842;51.244;7.102;2023-02-28T07:10:39;9.20;;;8.70;;
17449;SDS011;8842;51.244;7.102;2023-02-28T07:15:44;9.80;;;9.30;;
17449;SDS011;8842;51.244;7.102;2023-02-28T07:20:51;9.57;;;9.07;;
17449;SDS011;8842;51.244;7.102;2023-02-28T07:26:03;10.00;;;9.50;;
17449;SDS011;8842;51.244;7.102;2023-02-28T07:31:08;9.90;;;9.40;;
17449;SDS011;8842;51.244;7.102;2023-02-28T07:36:13;10.93;;;10.33;;
17449;SDS011;8842;51.244;7.102;2023-02-28T07:41:25;11.40;;;10.80;;
17449;SDS011;8842;51.244;7.102;2023-02-28T07:46:30;11.40;;;10.77;;
17449;SDS011;8842;51.244;7.102;2023-02-28T07:51:36;11.13;;;10.50;;
17449;SDS011;8842;51.244;7.102;2023-02-28T07:56:40;11.40;;;10.47;;
17449;SDS011;8842;51.244;7.102;2023-02-28T08:01:44;11.73;;;11.13;;
17449;SDS011;8842;51.244;7.102;2023-02-28T08:06:48;11.77;;;11.17;;
17449;SDS011;8842;51.244;7.102;2023-02-28T08:11:54;20.13;;;11.70;;
17449;SDS011;8842;51.244;7.102;2023-02-28T08:16:58;14.03;;;11.77;;
17449;SDS011;8842;51.244;7.102;2023-02-28T08:22:02;13.00;;;12.20;;
17449;SDS011;8842;51.244;7.102;2023-02-28T08:27:06;12.47;;;11.77;;
17449;SDS011;8842;51.244;7.102;2023-02-28T08:32:10;12.97;;;11.90;;
17449;SDS011;8842;51.244;7.102;2023-02-28T08:37:14;13.13;;;12.23;;
17449;SDS011;8842;51.244;7.102;2023-02-28T08:42:28;12.50;;;11.80;;
17449;SDS011;8842;51.244;7.102;2023-02-28T08:47:32;13.23;;;12.53;;
17449;SDS011;8842;51.244;7.102;2023-02-28T08:52:36;13.20;;;12.40;;
17449;SDS011;8842;51.244;7.102;2023-02-28T08:57:41;12.10;;;11.50;;
17449;SDS011;8842;51.244;7.102;2023-02-28T09:02:52;12.23;;;11.53;;
17449;SDS011;8842;51.244;7.102;2023-02-28T09:07:57;13.37;;;11.70;;
17449;SDS011;8842;51.244;7.102;2023-02-28T09:18:12;11.70;;;11.10;;
17449;SDS011;8842;51.244;7.102;2023-02-28T09:23:16;12.47;;;11.73;;
17449;SDS011;8842;51.244;7.102;2023-02-28T09:28:20;12.70;;;12.00;;
17449;SDS011;8842;51.244;7.102;2023-02-28T09:33:25;13.47;;;12.60;;
17449;SDS011;8842;51.244;7.102;2023-02-28T09:38:29;13.33;;;12.63;;
17449;SDS011;8842;51.244;7.102;2023-02-28T09:43:34;13.23;;;12.47;;
17449;SDS011;8842;51.244;7.102;2023-02-28T09:48:49;13.43;;;12.73;;
17449;SDS011;8842;51.244;7.102;2023-02-28T09:53:55;13.00;;;12.30;;
17449;SDS011;8842;51.244;7.102;2023-02-28T09:59:00;12.30;;;11.70;;
17449;SDS011;8842;51.244;7.102;2023-02-28T10:04:16;12.50;;;11.80;;
17449;SDS011;8842;51.244;7.102;2023-02-28T10:09:25;12.83;;;12.03;;
17449;SDS011;8842;51.244;7.102;2023-02-28T10:14:33;13.43;;;12.73;;
17449;SDS011;8842;51.244;7.102;2023-02-28T10:19:46;12.60;;;11.90;;
17449;SDS011;8842;51.244;7.102;2023-02-28T10:24:53;12.13;;;11.53;;
17449;SDS011;8842;51.244;7.102;2023-02-28T10:30:02;12.80;;;12.10;;
17449;SDS011;8842;51.244;7.102;2023-02-28T10:35:14;13.07;;;12.37;;
17449;SDS011;8842;51.244;7.102;2023-02-28T10:40:30;14.20;;;13.30;;
17449;SDS011;8842;51.244;7.102;2023-02-28T10:45:35;13.53;;;12.77;;
17449;SDS011;8842;51.244;7.102;2023-02-28T10:50:42;14.73;;;13.40;;
17449;SDS011;8842;51.244;7.102;2023-02-28T10:55:49;13.00;;;12.30;;
17449;SDS011;8842;51.244;7.102;2023-02-28T11:01:02;13.93;;;13.10;;
17449;SDS011;8842;51.244;7.102;2023-02-28T11:06:16;14.13;;;13.27;;
17449;SDS011;8842;51.244;7.102;2023-02-28T11:11:22;13.10;;;12.40;;
17449;SDS011;8842;51.244;7.102;2023-02-28T11:16:37;13.70;;;13.00;;
17449;SDS011;8842;51.244;7.102;2023-02-28T11:21:45;13.60;;;12.90;;
17449;SDS011;8842;51.244;7.102;2023-02-28T11:26:55;13.20;;;12.50;;
17449;SDS011;8842;51.244;7.102;2023-02-28T11:32:05;11.67;;;11.07;;
17449;SDS011;8842;51.244;7.102;2023-02-28T11:37:15;12.00;;;11.40;;
17449;SDS011;8842;51.244;7.102;2023-02-28T11:42:28;12.23;;;11.60;;
17449;SDS011;8842;51.244;7.102;2023-02-28T11:47:55;14.47;;;13.60;;
17449;SDS011;8842;51.244;7.102;2023-02-28T11:53:03;15.17;;;14.17;;
17449;SDS011;8842;51.244;7.102;2023-02-28T12:03:53;13.27;;;12.57;;
17449;SDS011;8842;51.244;7.102;2023-02-28T12:14:44;12.20;;;11.60;;
17449;SDS011;8842;51.244;7.102;2023-02-28T12:19:54;13.17;;;12.47;;
17449;SDS011;8842;51.244;7.102;2023-02-28T12:30:43;13.13;;;12.43;;
17449;SDS011;8842;51.244;7.102;2023-02-28T12:35:51;13.50;;;12.80;;
17449;SDS011;8842;51.244;7.102;2023-02-28T12:46:15;13.67;;;12.97;;
17449;SDS011;8842;51.244;7.102;2023-02-28T12:51:22;12.93;;;12.23;;
17449;SDS011;8842;51.244;7.102;2023-02-28T12:56:32;12.60;;;11.90;;
17449;SDS011;8842;51.244;7.102;2023-02-28T13:01:54;13.10;;;12.40;;
17449;SDS011;8842;51.244;7.102;2023-02-28T13:12:49;11.10;;;10.50;;
17449;SDS011;8842;51.244;7.102;2023-02-28T13:17:55;11.63;;;11.03;;
17449;SDS011;8842;51.244;7.102;2023-02-28T13:23:01;12.73;;;12.03;;
17449;SDS011;8842;51.244;7.102;2023-02-28T13:28:09;12.97;;;12.27;;
17449;SDS011;8842;51.244;7.102;2023-02-28T13:33:22;11.80;;;11.20;;
17449;SDS011;8842;51.244;7.102;2023-02-28T13:38:36;12.40;;;11.70;;
17449;SDS011;8842;51.244;7.102;2023-02-28T13:44:03;11.77;;;11.17;;
17449;SDS011;8842;51.244;7.102;2023-02-28T13:49:23;11.73;;;11.03;;
17449;SDS011;8842;51.244;7.102;2023-02-28T13:54:39;11.90;;;11.30;;
17449;SDS011;8842;51.244;7.102;2023-02-28T13:59:50;13.10;;;12.40;;
17449;SDS011;8842;51.244;7.102;2023-02-28T14:05:06;12.77;;;12.07;;
17449;SDS011;8842;51.244;7.102;2023-02-28T14:10:22;13.20;;;12.50;;
17449;SDS011;8842;51.244;7.102;2023-02-28T14:15:38;12.50;;;11.80;;
17449;SDS011;8842;51.244;7.102;2023-02-28T14:20:56;12.30;;;11.70;;
17449;SDS011;8842;51.244;7.102;2023-02-28T14:26:12;12.30;;;11.70;;
17449;SDS011;8842;51.244;7.102;2023-02-28T14:31:22;12.50;;;11.80;;
17449;SDS011;8842;51.244;7.102;2023-02-28T14:36:31;12.10;;;11.50;;
17449;SDS011;8842;51.244;7.102;2023-02-28T14:41:44;12.47;;;11.77;;
17449;SDS011;8842;51.244;7.102;2023-02-28T14:46:50;12.33;;;11.70;;
17449;SDS011;8842;51.244;7.102;2023-02-28T14:52:03;11.90;;;11.30;;
17449;SDS011;8842;51.244;7.102;2023-02-28T14:57:20;12.10;;;11.50;;
17449;SDS011;8842;51.244;7.102;2023-02-28T15:02:34;11.90;;;11.30;;
17449;SDS011;8842;51.244;7.102;2023-02-28T15:07:39;12.40;;;11.80;;
17449;SDS011;8842;51.244;7.102;2023-02-28T15:12:45;13.00;;;12.20;;
17449;SDS011;8842;51.244;7.102;2023-02-28T15:17:55;12.30;;;11.60;;
17449;SDS011;8842;51.244;7.102;2023-02-28T15:23:01;12.90;;;12.20;;
17449;SDS011;8842;51.244;7.102;2023-02-28T15:28:09;12.40;;;11.70;;
17449;SDS011;8842;51.244;7.102;2023-02-28T15:33:20;11.90;;;11.30;;
17449;SDS011;8842;51.244;7.102;2023-02-28T15:38:27;12.00;;;11.40;;
17449;SDS011;8842;51.244;7.102;2023-02-28T15:43:39;12.50;;;11.80;;
17449;SDS011;8842;51.244;7.102;2023-02-28T15:48:43;12.07;;;11.47;;
17449;SDS011;8842;51.244;7.102;2023-02-28T15:53:52;12.70;;;12.00;;
17449;SDS011;8842;51.244;7.102;2023-02-28T15:59:06;12.70;;;12.00;;
17449;SDS011;8842;51.244;7.102;2023-02-28T16:04:14;12.80;;;12.10;;
17449;SDS011;8842;51.244;7.102;2023-02-28T16:09:20;12.37;;;11.77;;
17449;SDS011;8842;51.244;7.102;2023-02-28T16:14:25;12.27;;;11.67;;
17449;SDS011;8842;51.244;7.102;2023-02-28T16:19:37;11.10;;;10.50;;
17449;SDS011;8842;51.244;7.102;2023-02-28T16:24:41;10.87;;;10.27;;
17449;SDS011;8842;51.244;7.102;2023-02-28T16:29:48;10.40;;;9.90;;
17449;SDS011;8842;51.244;7.102;2023-02-28T16:34:59;11.30;;;10.70;;
17449;SDS011;8842;51.244;7.102;2023-02-28T16:40:04;11.40;;;10.80;;
17449;SDS011;8842;51.244;7.102;2023-02-28T16:45:15;11.37;;;10.77;;
17449;SDS011;8842;51.244;7.102;2023-02-28T16:50:29;12.00;;;11.40;;
17449;SDS011;8842;51.244;7.102;2023-02-28T16:55:35;11.83;;;11.23;;
17449;SDS011;8842;51.244;7.102;2023-02-28T17:00:40;12.00;;;11.40;;
17449;SDS011;8842;51.244;7.102;2023-02-28T17:05:44;11.90;;;11.30;;
17449;SDS011;8842;51.244;7.102;2023-02-28T17:10:48;12.13;;;11.53;;
17449;SDS011;8842;51.244;7.102;2023-02-28T17:15:52;12.40;;;11.80;;
17449;SDS011;8842;51.244;7.102;2023-02-28T17:20:56;11.27;;;10.67;;
17449;SDS011;8842;51.244;7.102;2023-02-28T17:26:10;10.63;;;10.03;;
17449;SDS011;8842;51.244;7.102;2023-02-28T17:31:16;11.80;;;11.20;;
17449;SDS011;8842;51.244;7.102;2023-02-28T17:36:22;11.13;;;10.53;;
17449;SDS011;8842;51.244;7.102;2023-02-28T17:41:34;12.17;;;11.47;;
17449;SDS011;8842;51.244;7.102;2023-02-28T17:46:38;10.80;;;10.20;;
17449;SDS011;8842;51.244;7.102;2023-02-28T17:51:44;11.97;;;11.37;;
17449;SDS011;8842;51.244;7.102;2023-02-28T17:56:56;13.03;;;12.33;;
17449;SDS011;8842;51.244;7.102;2023-02-28T18:02:00;12.17;;;11.57;;
17449;SDS011;8842;51.244;7.102;2023-02-28T18:07:04;11.03;;;10.43;;
17449;SDS011;8842;51.244;7.102;2023-02-28T18:12:10;11.13;;;10.53;;
17449;SDS011;8842;51.244;7.102;2023-02-28T18:17:14;11.43;;;10.83;;
17449;SDS011;8842;51.244;7.102;2023-02-28T18:22:18;11.40;;;10.80;;
17449;SDS011;8842;51.244;7.102;2023-02-28T18:27:30;11.80;;;11.20;;
17449;SDS011;8842;51.244;7.102;2023-02-28T18:32:34;11.60;;;11.00;;
17449;SDS011;8842;51.244;7.102;2023-02-28T18:37:45;12.13;;;11.43;;
17449;SDS011;8842;51.244;7.102;2023-02-28T18:42:49;11.40;;;10.80;;
17449;SDS011;8842;51.244;7.102;2023-02-28T18:47:54;11.33;;;10.73;;
17449;SDS011;8842;51.244;7.102;2023-02-28T18:53:08;12.07;;;11.47;;
17449;SDS011;8842;51.244;7.102;2023-02-28T18:58:13;12.17;;;11.57;;
17449;SDS011;8842;51.244;7.102;2023-02-28T19:03:17;11.70;;;11.10;;
17449;SDS011;8842;51.244;7.102;2023-02-28T19:08:21;10.90;;;10.30;;
17449;SDS011;8842;51.244;7.102;2023-02-28T19:13:25;11.50;;;10.90;;
17449;SDS011;8842;51.244;7.102;2023-02-28T19:18:37;11.50;;;10.90;;
17449;SDS011;8842;51.244;7.102;2023-02-28T19:23:42;11.47;;;10.87;;
17449;SDS011;8842;51.244;7.102;2023-02-28T19:28:53;11.63;;;11.03;;
17449;SDS011;8842;51.244;7.102;2023-02-28T19:33:58;10.97;;;10.37;;
17449;SDS011;8842;51.244;7.102;2023-02-28T19:39:09;11.10;;;10.50;;
17449;SDS011;8842;51.244;7.102;2023-02-28T19:44:13;11.00;;;10.40;;
17449;SDS011;8842;51.244;7.102;2023-02-28T19:49:17;11.40;;;10.50;;
17449;SDS011;8842;51.244;7.102;2023-02-28T19:54:21;11.10;;;10.50;;
17449;SDS011;8842;51.244;7.102;2023-02-28T19:59:26;10.37;;;9.87;;
17449;SDS011;8842;51.244;7.102;2023-02-28T20:04:31;10.63;;;10.10;;
17449;SDS011;8842;51.244;7.102;2023-02-28T20:09:42;10.97;;;10.37;;
17449;SDS011;8842;51.244;7.102;2023-02-28T20:14:47;10.90;;;10.30;;
17449;SDS011;8842;51.244;7.102;2023-02-28T20:19:51;11.23;;;10.63;;
17449;SDS011;8842;51.244;7.102;2023-02-28T20:25:03;9.80;;;9.30;;
17449;SDS011;8842;51.244;7.102;2023-02-28T20:30:09;10.90;;;10.30;;
17449;SDS011;8842;51.244;7.102;2023-02-28T20:35:14;11.10;;;10.50;;
17449;SDS011;8842;51.244;7.102;2023-02-28T20:40:18;11.03;;;10.40;;
17449;SDS011;8842;51.244;7.102;2023-02-28T20:45:23;10.97;;;10.37;;
17449;SDS011;8842;51.244;7.102;2023-02-28T20:50:27;11.60;;;11.00;;
17449;SDS011;8842;51.244;7.102;2023-02-28T20:55:31;11.67;;;11.07;;
17449;SDS011;8842;51.244;7.102;2023-02-28T21:00:35;11.00;;;10.40;;
17449;SDS011;8842;51.244;7.102;2023-02-28T21:05:39;11.00;;;10.40;;
17449;SDS011;8842;51.244;7.102;2023-02-28T21:10:43;11.10;;;10.50;;
17449;SDS011;8842;51.244;7.102;2023-02-28T21:15:55;11.23;;;10.63;;
17449;SDS011;8842;51.244;7.102;2023-02-28T21:21:00;10.77;;;10.17;;
17449;SDS011;8842;51.244;7.102;2023-02-28T21:26:05;11.60;;;10.80;;
17449;SDS011;8842;51.244;7.102;2023-02-28T21:31:12;10.77;;;10.17;;
17449;SDS011;8842;51.244;7.102;2023-02-28T21:36:19;10.30;;;9.80;;
17449;SDS011;8842;51.244;7.102;2023-02-28T21:41:25;10.50;;;10.00;;
17449;SDS011;8842;51.244;7.102;2023-02-28T21:46:30;10.70;;;10.10;;
17449;SDS011;8842;51.244;7.102;2023-02-28T21:51:42;11.07;;;10.47;;
17449;SDS011;8842;51.244;7.102;2023-02-28T21:56:46;10.40;;;9.90;;
17449;SDS011;8842;51.244;7.102;2023-02-28T22:01:58;11.00;;;10.40;;
17449;SDS011;8842;51.244;7.102;2023-02-28T22:07:02;10.93;;;10.33;;
17449;SDS011;8842;51.244;7.102;2023-02-28T22:12:07;10.60;;;10.00;;
17449;SDS011;8842;51.244;7.102;2023-02-28T22:17:11;10.23;;;9.73;;
17449;SDS011;8842;51.244;7.102;2023-02-28T22:22:15;10.50;;;10.00;;
17449;SDS011;8842;51.244;7.102;2023-02-28T22:27:19;10.80;;;10.20;;
17449;SDS011;8842;51.244;7.102;2023-02-28T22:32:23;10.40;;;9.90;;
17449;SDS011;8842;51.244;7.102;2023-02-28T22:37:27;10.13;;;9.63;;
17449;SDS011;8842;51.244;7.102;2023-02-28T22:42:32;10.63;;;10.10;;
17449;SDS011;8842;51.244;7.102;2023-02-28T22:47:36;10.17;;;9.57;;
17449;SDS011;8842;51.244;7.102;2023-02-28T22:52:40;11.37;;;10.37;;
17449;SDS011;8842;51.244;7.102;2023-02-28T22:57:44;10.10;;;9.60;;
17449;SDS011;8842;51.244;7.102;2023-02-28T23:02:48;9.80;;;9.30;;
17449;SDS011;8842;51.244;7.102;2023-02-28T23:07:52;10.10;;;9.60;;
17449;SDS011;8842;51.244;7.102;2023-02-28T23:12:56;10.20;;;9.67;;
17449;SDS011;8842;51.244;7.102;2023-02-28T23:18:02;9.77;;;9.27;;
17449;SDS011;8842;51.244;7.102;2023-02-28T23:23:06;10.10;;;9.60;;
17449;SDS011;8842;51.244;7.102;2023-02-28T23:28:11;10.67;;;10.07;;
17449;SDS011;8842;51.244;7.102;2023-02-28T23:33:15;9.97;;;9.47;;
17449;SDS011;8842;51.244;7.102;2023-02-28T23:38:19;9.77;;;9.27;;
17449;SDS011;8842;51.244;7.102;2023-02-28T23:43:24;9.90;;;9.40;;
17449;SDS011;8842;51.244;7.102;2023-02-28T23:48:35;9.80;;;9.30;;
17449;SDS011;8842;51.244;7.102;2023-02-28T23:53:41;9.70;;;9.20;;
17449;SDS011;8842;51.244;7.102;2023-02-28T23:58:55;10.27;;;9.77;;
